^^
Peaceful Hills Weather Station Historical Data
 
Daily Summary for March 03, 2021 Units:  Metric    English   Both
Daily Weekly Monthly Yearly
  High: Low: Average:
Temperature: 20.1 °C -1.3 °C 9.1 °C
Dew Point: 5.1 °C -2.4 °C 1.3 °C
Humidity: 92% 30% 65%
Wind Speed: 3.5km/h 0km/h 0.2km/h
Wind Gust: 16.1km/h - -
Wind- - SW
Pressure: 1023.9 hPa 1019.5 hPa -
Precipitation: 0 mm    
 
 
Tabular Data for March 03, 2021
Time Temperature Dew Point Pressure Wind Wind Speed Wind Gust Humidity Rainfall Rate (Hourly)
00:04 2.3 °C 0.2 °C 1022.6 hPa Calm     86% 0 mm
00:09 2.2 °C 0.1 °C 1022.6 hPa Calm     86.4% 0 mm
00:14 2 °C 0.1 °C 1022.2 hPa Calm     87% 0 mm
00:19 1.9 °C 0.1 °C 1022.2 hPa Calm     88% 0 mm
00:24 1.8 °C 0 °C 1022.2 hPa Calm     88% 0 mm
00:29 1.7 °C -0.1 °C 1022.2 hPa SSW 0.6 km/h 3.2 km/h 88% 0 mm
00:34 1.6 °C -0.1 °C 1022.2 hPa Calm     88.8% 0 mm
00:39 1.6 °C -0.1 °C 1022.2 hPa Calm     89% 0 mm
00:44 1.4 °C -0.2 °C 1022.2 hPa Calm     89% 0 mm
00:49 1.3 °C -0.3 °C 1022.2 hPa Calm     89% 0 mm
00:54 1.2 °C -0.5 °C 1022.2 hPa Calm     88.4% 0 mm
00:59 1.1 °C -0.6 °C 1022.2 hPa Calm     89% 0 mm
01:04 0.9 °C -0.7 °C 1022.2 hPa Calm     89% 0 mm
01:09 0.9 °C -0.6 °C 1021.9 hPa Calm     90% 0 mm
01:14 0.9 °C -0.5 °C 1021.9 hPa Calm     90.2% 0 mm
01:19 0.9 °C -0.4 °C 1021.9 hPa SSW 0.6 km/h 6.4 km/h 90.4% 0 mm
01:24 1 °C -0.3 °C 1021.6 hPa Calm   6.4 km/h 90.6% 0 mm
01:29 1 °C -0.3 °C 1021.9 hPa Calm     90.8% 0 mm
01:34 0.9 °C -0.6 °C 1021.9 hPa Calm     90% 0 mm
01:39 0.7 °C -0.7 °C 1021.9 hPa Calm     90% 0 mm
01:44 0.6 °C -0.8 °C 1021.9 hPa Calm     90% 0 mm
01:49 0.5 °C -0.9 °C 1021.6 hPa Calm     90% 0 mm
01:54 0.4 °C -0.9 °C 1021.6 hPa Calm     90.6% 0 mm
01:59 0.3 °C -0.9 °C 1021.6 hPa Calm     91% 0 mm
02:04 0.2 °C -1.1 °C 1021.6 hPa Calm     91% 0 mm
02:09 0.1 °C -1.2 °C 1021.6 hPa Calm     91% 0 mm
02:14 0.1 °C -1.2 °C 1021.6 hPa SW 0.6 km/h 6.4 km/h 91% 0 mm
02:19 0.1 °C -1.2 °C 1021.6 hPa Calm   6.4 km/h 91% 0 mm
02:24 -0.1 °C -1.3 °C 1021.6 hPa Calm     91% 0 mm
02:29 -0.2 °C -1.4 °C 1021.6 hPa Calm     91% 0 mm
02:34 -0.3 °C -1.6 °C 1021.6 hPa Calm     91% 0 mm
02:39 -0.3 °C -1.6 °C 1021.6 hPa Calm     91% 0 mm
02:44 -0.4 °C -1.7 °C 1021.6 hPa Calm     91% 0 mm
02:49 -0.5 °C -1.8 °C 1021.6 hPa Calm     91% 0 mm
02:54 -0.5 °C -1.8 °C 1021.6 hPa Calm     91% 0 mm
02:59 -0.6 °C -1.8 °C 1021.6 hPa Calm     91% 0 mm
03:04 -0.7 °C -1.9 °C 1021.6 hPa Calm     91% 0 mm
03:09 -0.7 °C -1.8 °C 1021.6 hPa Calm     92% 0 mm
03:14 -0.7 °C -1.8 °C 1021.6 hPa Calm     92% 0 mm
03:19 -0.8 °C -2 °C 1021.6 hPa Calm     91.4% 0 mm
03:24 -0.9 °C -2 °C 1021.6 hPa Calm     92% 0 mm
03:29 -0.9 °C -2 °C 1021.6 hPa Calm     92% 0 mm
03:34 -0.9 °C -2.1 °C 1021.6 hPa Calm     92% 0 mm
03:39 -1 °C -2.1 °C 1021.6 hPa Calm     92% 0 mm
03:44 -1 °C -2.1 °C 1021.6 hPa Calm     92% 0 mm
03:49 -1.1 °C -2.2 °C 1021.9 hPa Calm     92% 0 mm
03:54 -1.1 °C -2.2 °C 1021.9 hPa Calm     92% 0 mm
03:59 -1.1 °C -2.2 °C 1021.9 hPa Calm     92% 0 mm
04:04 -1.1 °C -2.2 °C 1021.9 hPa Calm     92% 0 mm
04:09 -1.1 °C -2.2 °C 1021.9 hPa Calm     92% 0 mm
04:14 -1.1 °C -2.2 °C 1021.9 hPa Calm     92% 0 mm
04:19 -1.1 °C -2.2 °C 1021.9 hPa Calm     92% 0 mm
04:24 -1.1 °C -2.2 °C 1022.2 hPa Calm     92% 0 mm
04:29 -1.1 °C -2.2 °C 1022.2 hPa Calm     92% 0 mm
04:34 -1.1 °C -2.2 °C 1022.2 hPa Calm     92% 0 mm
04:44 -1.2 °C -2.3 °C 1022.2 hPa Calm     92% 0 mm
04:49 -1.2 °C -2.3 °C 1022.2 hPa Calm     92% 0 mm
04:54 -1.2 °C -2.3 °C 1022.2 hPa Calm     92% 0 mm
04:59 -1.2 °C -2.3 °C 1022.2 hPa Calm     92% 0 mm
05:04 -1.3 °C -2.4 °C 1022.2 hPa Calm     92% 0 mm
05:09 -1.3 °C -2.4 °C 1022.2 hPa Calm     92% 0 mm
05:14 -1.3 °C -2.4 °C 1022.2 hPa Calm     92% 0 mm
05:19 -1.3 °C -2.4 °C 1022.2 hPa Calm     92% 0 mm
05:24 -1.3 °C -2.4 °C 1022.2 hPa Calm     92% 0 mm
05:29 -1.2 °C -2.3 °C 1022.2 hPa Calm     92% 0 mm
05:34 -1.3 °C -2.4 °C 1022.2 hPa Calm     92% 0 mm
05:39 -1.3 °C -2.4 °C 1022.2 hPa Calm     92% 0 mm
05:44 -1.3 °C -2.4 °C 1022.6 hPa Calm     92% 0 mm
05:49 -1.3 °C -2.4 °C 1022.6 hPa Calm     92% 0 mm
05:54 -1.3 °C -2.4 °C 1022.6 hPa Calm     92% 0 mm
05:59 -1.3 °C -2.4 °C 1022.6 hPa Calm     92% 0 mm
06:04 -1.3 °C -2.4 °C 1022.6 hPa Calm     92% 0 mm
06:14 -1.2 °C -2.3 °C 1022.6 hPa Calm     92% 0 mm
06:19 -1.2 °C -2.3 °C 1022.9 hPa Calm     92% 0 mm
06:24 -1.2 °C -2.3 °C 1022.9 hPa Calm     92% 0 mm
06:29 -1.3 °C -2.4 °C 1022.9 hPa Calm     92% 0 mm
06:34 -1.3 °C -2.4 °C 1022.9 hPa Calm     92% 0 mm
06:39 -1.3 °C -2.4 °C 1022.9 hPa Calm     92% 0 mm
06:44 -1.2 °C -2.3 °C 1022.9 hPa Calm     92% 0 mm
06:49 -1.3 °C -2.4 °C 1022.9 hPa Calm     92% 0 mm
06:54 -1.3 °C -2.4 °C 1022.9 hPa Calm     92% 0 mm
06:59 -1.2 °C -2.3 °C 1023.2 hPa Calm     92% 0 mm
07:04 -1.2 °C -2.3 °C 1023.2 hPa Calm     92% 0 mm
07:09 -1.1 °C -2.2 °C 1023.2 hPa Calm     92% 0 mm
07:14 -0.9 °C -2.1 °C 1023.2 hPa Calm     92% 0 mm
07:19 -0.7 °C -1.9 °C 1023.2 hPa Calm     91.8% 0 mm
07:24 -0.4 °C -1.6 °C 1023.2 hPa Calm     91.6% 0 mm
07:29 -0.2 °C -1.4 °C 1023.2 hPa Calm   3.2 km/h 91% 0 mm
07:34 0 °C -1.2 °C 1023.2 hPa Calm     91.6% 0 mm
07:39 0.2 °C -0.9 °C 1023.6 hPa Calm     91.8% 0 mm
07:44 0.3 °C -0.8 °C 1023.6 hPa Calm     92% 0 mm
07:49 0.5 °C -0.8 °C 1023.6 hPa Calm     91% 0 mm
07:54 0.8 °C -0.4 °C 1023.6 hPa Calm   3.2 km/h 91.4% 0 mm
07:59 1.1 °C -0.2 °C 1023.6 hPa Calm     91.2% 0 mm
08:04 1.5 °C 0.3 °C 1023.6 hPa Calm   3.2 km/h 92% 0 mm
08:09 1.9 °C 0.8 °C 1023.6 hPa Calm   3.2 km/h 92% 0 mm
08:14 2.4 °C 1.2 °C 1023.6 hPa Calm     92% 0 mm
08:19 2.8 °C 1.6 °C 1023.6 hPa Calm     92% 0 mm
08:24 3.2 °C 2 °C 1023.6 hPa Calm   3.2 km/h 91.6% 0 mm
08:29 3.7 °C 2.4 °C 1023.6 hPa Calm     91.6% 0 mm
08:34 4.1 °C 2.9 °C 1023.9 hPa Calm     92% 0 mm
08:39 4.6 °C 3.3 °C 1023.9 hPa Calm     91.4% 0 mm
08:44 5 °C 3.6 °C 1023.9 hPa West 1.6 km/h 8 km/h 90.6% 0 mm
08:49 5.4 °C 3.9 °C 1023.9 hPa Calm   8 km/h 89.6% 0 mm
08:54 5.9 °C 4.1 °C 1023.9 hPa West 1.3 km/h 6.4 km/h 88.6% 0 mm
08:59 6.3 °C 4.4 °C 1023.9 hPa Calm   6.4 km/h 87.6% 0 mm
09:04 6.8 °C 4.7 °C 1023.9 hPa Calm   3.2 km/h 86.4% 0 mm
09:09 7.3 °C 4.8 °C 1023.9 hPa Calm   6.4 km/h 84.4% 0 mm
09:14 7.7 °C 4.8 °C 1023.9 hPa West 0.6 km/h 11.3 km/h 81.8% 0 mm
09:19 8.2 °C 4.9 °C 1023.9 hPa Calm   3.2 km/h 80% 0 mm
09:24 8.5 °C 4.9 °C 1023.9 hPa Calm     78.2% 0 mm
09:29 8.9 °C 5.1 °C 1023.9 hPa Calm     77% 0 mm
09:34 9.3 °C 5 °C 1023.9 hPa Calm   3.2 km/h 74.6% 0 mm
09:39 9.7 °C 4.8 °C 1023.9 hPa Calm   3.2 km/h 71.8% 0 mm
09:44 10 °C 4.7 °C 1023.9 hPa Calm   16.1 km/h 69.6% 0 mm
09:49 10.3 °C 4.8 °C 1023.9 hPa Calm   16.1 km/h 68.8% 0 mm
09:54 10.6 °C 4.8 °C 1023.6 hPa Calm   6.4 km/h 67.4% 0 mm
09:59 10.8 °C 4.4 °C 1023.6 hPa Calm   6.4 km/h 64.4% 0 mm
10:04 11.1 °C 4.7 °C 1023.6 hPa Calm     64.6% 0 mm
10:09 11.4 °C 4.6 °C 1023.6 hPa Calm   3.2 km/h 63% 0 mm
10:14 11.7 °C 4.6 °C 1023.6 hPa SSW 0.6 km/h 3.2 km/h 61.6% 0 mm
10:19 11.8 °C 4.3 °C 1023.6 hPa Calm   3.2 km/h 59.8% 0 mm
10:24 12 °C 4.4 °C 1023.6 hPa SSW 1.6 km/h 8 km/h 59.8% 0 mm
10:29 12.2 °C 4.1 °C 1023.2 hPa Calm   3.2 km/h 57.8% 0 mm
10:34 12.2 °C 3.8 °C 1023.2 hPa Calm   3.2 km/h 56.4% 0 mm
10:39 12.4 °C 4.2 °C 1023.2 hPa Calm   3.2 km/h 57.4% 0 mm
10:44 12.7 °C 4.3 °C 1023.2 hPa Calm     56.6% 0 mm
10:49 12.9 °C 4.3 °C 1023.2 hPa Calm   3.2 km/h 55.8% 0 mm
10:54 13.1 °C 4.2 °C 1023.2 hPa Calm   3.2 km/h 54.8% 0 mm
10:59 13.3 °C 4.3 °C 1023.2 hPa Calm   3.2 km/h 54.6% 0 mm
11:04 13.6 °C 4.2 °C 1022.9 hPa Calm   3.2 km/h 53.2% 0 mm
11:09 13.7 °C 3.8 °C 1022.9 hPa Calm     51.2% 0 mm
11:14 13.9 °C 3.9 °C 1022.9 hPa Calm     51% 0 mm
11:19 14.2 °C 3.8 °C 1022.9 hPa Calm     49.8% 0 mm
11:24 14.3 °C 3.8 °C 1022.9 hPa Calm   3.2 km/h 49.4% 0 mm
11:29 14.3 °C 3.9 °C 1022.6 hPa Calm   3.2 km/h 49.6% 0 mm
11:34 14.9 °C 4.4 °C 1022.6 hPa Calm   3.2 km/h 49.6% 0 mm
11:39 15.3 °C 3.9 °C 1022.6 hPa Calm     46.4% 0 mm
11:44 15.4 °C 4.1 °C 1022.6 hPa Calm   3.2 km/h 46.8% 0 mm
11:49 15.4 °C 3.9 °C 1022.6 hPa Calm   3.2 km/h 46% 0 mm
11:54 15.6 °C 3.3 °C 1022.6 hPa Calm   3.2 km/h 44% 0 mm
11:59 15.8 °C 3.3 °C 1022.6 hPa Calm   3.2 km/h 43.2% 0 mm
12:04 15.9 °C 3.3 °C 1022.2 hPa South 0.6 km/h 6.4 km/h 42.8% 0 mm
12:09 16.2 °C 3.4 °C 1022.2 hPa SE 0.6 km/h 11.3 km/h 42.6% 0 mm
12:14 16.4 °C 2.7 °C 1022.2 hPa Calm     39.8% 0 mm
12:19 16.8 °C 2.9 °C 1021.9 hPa Calm   6.4 km/h 39.4% 0 mm
12:24 16.9 °C 2.2 °C 1021.9 hPa SSE 0.6 km/h 8 km/h 37.2% 0 mm
12:29 17.1 °C 2.4 °C 1021.9 hPa WSW 0.6 km/h 8 km/h 37.6% 0 mm
12:34 17.2 °C 1.6 °C 1021.9 hPa Calm   3.2 km/h 35% 0 mm
12:39 17.3 °C 0.6 °C 1021.9 hPa WNW 0.6 km/h 6.4 km/h 32.4% 0 mm
12:44 17.4 °C 0.5 °C 1021.6 hPa Calm     32% 0 mm
12:49 17.5 °C 1.3 °C 1021.6 hPa Calm   3.2 km/h 33.6% 0 mm
12:54 17.6 °C 1.3 °C 1021.2 hPa WNW 3.5 km/h 11.3 km/h 33.4% 0 mm
12:59 17.6 °C 1.2 °C 1021.2 hPa South 1.9 km/h 11.3 km/h 33.4% 0 mm
13:04 17.8 °C 1.7 °C 1021.2 hPa Calm   16.1 km/h 33.8% 0 mm
13:09 18.1 °C 0.9 °C 1020.9 hPa SSE 0.6 km/h 3.2 km/h 31.4% 0 mm
13:14 18.1 °C 0.9 °C 1020.9 hPa WNW 1.6 km/h 14.5 km/h 31.4% 0 mm
13:19 17.9 °C 0.8 °C 1020.9 hPa West 0.6 km/h 3.2 km/h 31.6% 0 mm
13:24 17.9 °C 0.6 °C 1020.9 hPa Calm   3.2 km/h 31.2% 0 mm
13:29 17.6 °C 0 °C 1020.9 hPa Calm   3.2 km/h 30.4% 0 mm
13:34 17.6 °C -0.2 °C 1020.5 hPa Calm   8 km/h 30% 0 mm
13:39 17.8 °C 0.3 °C 1020.5 hPa Calm   8 km/h 30.8% 0 mm
13:44 18.2 °C 1.1 °C 1020.5 hPa Calm     31.8% 0 mm
13:49 18.3 °C 1.6 °C 1020.5 hPa Calm     32.6% 0 mm
13:54 18.3 °C 1.4 °C 1020.5 hPa Calm     32.4% 0 mm
13:59 18.4 °C 1.9 °C 1020.5 hPa Calm     33.2% 0 mm
14:04 18.7 °C 2.5 °C 1020.2 hPa SW 1.3 km/h 11.3 km/h 34% 0 mm
14:09 18.7 °C 2.7 °C 1020.2 hPa SW 0.6 km/h 11.3 km/h 34.4% 0 mm
14:14 18.8 °C 2.4 °C 1020.2 hPa Calm   8 km/h 33.6% 0 mm
14:19 18.9 °C 2.4 °C 1020.2 hPa Calm   6.4 km/h 33.4% 0 mm
14:24 19.2 °C 2.3 °C 1020.2 hPa Calm   3.2 km/h 32.7% 0 mm
14:29 19.4 °C 2.7 °C 1020.2 hPa Calm     32.8% 0 mm
14:34 19.6 °C 2.3 °C 1020.2 hPa Calm   11.3 km/h 31.8% 0 mm
14:44 19.7 °C 2.9 °C 1020.2 hPa Calm     32.8% 0 mm
14:49 19.6 °C 2.5 °C 1020.2 hPa Calm     32.2% 0 mm
14:54 19.6 °C 2.8 °C 1020.2 hPa Calm     33% 0 mm
14:59 19.3 °C 2.3 °C 1020.2 hPa Calm   11.3 km/h 32.2% 0 mm
15:04 19.2 °C 2.2 °C 1019.9 hPa Calm     32.4% 0 mm
15:09 19.2 °C 1.9 °C 1019.9 hPa Calm   3.2 km/h 31.6% 0 mm
15:14 19.1 °C 1.7 °C 1019.9 hPa WNW 2.9 km/h 11.3 km/h 31.4% 0 mm
15:19 19.2 °C 2.2 °C 1019.9 hPa Calm   11.3 km/h 32.2% 0 mm
15:24 19.5 °C 2.7 °C 1019.9 hPa Calm     32.8% 0 mm
15:29 19.4 °C 2.9 °C 1019.9 hPa Calm     33.4% 0 mm
15:34 19.4 °C 2.7 °C 1019.9 hPa SW 2.9 km/h 11.3 km/h 33% 0 mm
15:39 19.6 °C 2.6 °C 1019.9 hPa SSW 2.3 km/h 16.1 km/h 32.2% 0 mm
15:44 19.6 °C 2.2 °C 1019.5 hPa Calm     31.6% 0 mm
15:49 19.7 °C 2.3 °C 1019.5 hPa Calm     31.4% 0 mm
15:54 20 °C 2.5 °C 1019.5 hPa Calm     31.4% 0 mm
16:04 19.9 °C 2.7 °C 1019.5 hPa Calm   3.2 km/h 32% 0 mm
16:09 19.8 °C 2.8 °C 1019.5 hPa Calm   6.4 km/h 32.4% 0 mm
16:14 20 °C 3.1 °C 1019.5 hPa Calm   6.4 km/h 32.6% 0 mm
16:19 20.1 °C 3.2 °C 1019.5 hPa Calm     32.8% 0 mm
16:24 19.9 °C 2.6 °C 1019.5 hPa Calm     31.8% 0 mm
16:29 19.8 °C 2.7 °C 1019.5 hPa Calm     32.2% 0 mm
16:34 19.8 °C 2.6 °C 1019.5 hPa Calm     32% 0 mm
16:39 19.6 °C 2.5 °C 1019.5 hPa Calm     32.2% 0 mm
16:44 19.4 °C 2.4 °C 1019.5 hPa Calm   3.2 km/h 32.2% 0 mm
16:49 19.4 °C 2.4 °C 1019.5 hPa Calm   3.2 km/h 32.2% 0 mm
16:54 19.4 °C 2.2 °C 1019.5 hPa Calm   3.2 km/h 31.8% 0 mm
16:59 19.3 °C 2.4 °C 1019.5 hPa Calm   6.4 km/h 32.4% 0 mm
17:04 19.1 °C 2.2 °C 1019.5 hPa Calm   3.2 km/h 32.4% 0 mm
17:09 18.9 °C 1.9 °C 1019.5 hPa Calm   11.3 km/h 32% 0 mm
17:14 18.8 °C 2.4 °C 1019.5 hPa Calm   6.4 km/h 33.6% 0 mm
17:19 18.7 °C 2.1 °C 1019.5 hPa Calm   6.4 km/h 33% 0 mm
17:24 18.7 °C 2.6 °C 1019.5 hPa Calm   3.2 km/h 34.2% 0 mm
17:29 18.7 °C 3 °C 1019.5 hPa Calm   6.4 km/h 35.4% 0 mm
17:34 18.5 °C 3.3 °C 1019.5 hPa SSW 2.3 km/h 11.3 km/h 36.4% 0 mm
17:39 18.3 °C 3.2 °C 1019.5 hPa Calm   11.3 km/h 36.6% 0 mm
17:44 18.1 °C 3.6 °C 1019.5 hPa Calm   14.5 km/h 38% 0 mm
17:49 17.8 °C 3.5 °C 1019.5 hPa Calm   14.5 km/h 38.6% 0 mm
17:54 17.6 °C 3.4 °C 1019.5 hPa Calm   14.5 km/h 38.8% 0 mm
17:59 17.4 °C 3.5 °C 1019.5 hPa Calm   14.5 km/h 39.4% 0 mm
18:04 17.3 °C 3.2 °C 1019.5 hPa Calm   3.2 km/h 39.2% 0 mm
18:09 17.1 °C 3.6 °C 1019.5 hPa Calm   3.2 km/h 40.6% 0 mm
18:14 16.9 °C 3.6 °C 1019.5 hPa Calm     41% 0 mm
18:19 16.7 °C 3.4 °C 1019.5 hPa Calm     41% 0 mm
18:24 16.5 °C 3.2 °C 1019.5 hPa Calm   3.2 km/h 41% 0 mm
18:29 16.3 °C 3.1 °C 1019.9 hPa Calm     41% 0 mm
18:34 16.2 °C 3 °C 1019.9 hPa SSE 0.6 km/h 3.2 km/h 41.2% 0 mm
18:39 16.1 °C 3.1 °C 1019.9 hPa SSE 0.6 km/h 3.2 km/h 42% 0 mm
18:44 15.9 °C 3.2 °C 1019.9 hPa Calm   3.2 km/h 42.6% 0 mm
18:49 15.7 °C 3.4 °C 1019.9 hPa Calm     44% 0 mm
18:54 15.3 °C 3.6 °C 1019.9 hPa Calm     45.6% 0 mm
18:59 14.8 °C 3.6 °C 1019.9 hPa Calm     46.8% 0 mm
19:04 14.5 °C 3.5 °C 1019.9 hPa Calm     47.8% 0 mm
19:09 14.2 °C 3.6 °C 1019.9 hPa Calm     49% 0 mm
19:14 13.9 °C 3.4 °C 1019.9 hPa Calm     49.2% 0 mm
19:19 13.7 °C 3.4 °C 1019.9 hPa Calm     50% 0 mm
19:24 13.4 °C 3.2 °C 1019.9 hPa Calm     50% 0 mm
19:29 13.3 °C 3.3 °C 1019.9 hPa Calm     51% 0 mm
19:34 13 °C 3.5 °C 1019.9 hPa Calm     52.4% 0 mm
19:39 12.8 °C 3.4 °C 1019.9 hPa Calm     52.6% 0 mm
19:44 12.7 °C 3.3 °C 1020.2 hPa Calm     52.8% 0 mm
19:49 12.6 °C 3 °C 1020.2 hPa Calm     52% 0 mm
19:54 12.7 °C 3.1 °C 1020.2 hPa Calm     52% 0 mm
19:59 12.7 °C 3.1 °C 1020.2 hPa Calm     52% 0 mm
20:04 12.7 °C 3.1 °C 1020.2 hPa Calm     52% 0 mm
20:09 12.6 °C 3.2 °C 1020.2 hPa Calm     52.6% 0 mm
20:14 12.4 °C 3.3 °C 1020.2 hPa Calm     53.6% 0 mm
20:19 12.2 °C 3.1 °C 1020.2 hPa Calm     54% 0 mm
20:24 11.9 °C 3.3 °C 1020.5 hPa Calm     55.4% 0 mm
20:29 11.6 °C 3.2 °C 1020.5 hPa Calm     56.4% 0 mm
20:34 11.2 °C 2.9 °C 1020.5 hPa Calm     56.6% 0 mm
20:39 10.9 °C 2.7 °C 1020.5 hPa Calm     57% 0 mm
20:44 10.7 °C 2.6 °C 1020.5 hPa Calm     57.2% 0 mm
20:49 10.4 °C 2.7 °C 1020.5 hPa Calm     59% 0 mm
20:59 9.8 °C 2.7 °C 1020.9 hPa Calm     61% 0 mm
21:04 9.6 °C 2.9 °C 1020.9 hPa Calm     63% 0 mm
21:09 9.4 °C 2.9 °C 1020.9 hPa Calm     63.8% 0 mm
21:14 9.2 °C 2.8 °C 1021.2 hPa Calm     64.2% 0 mm
21:19 9 °C 2.9 °C 1021.2 hPa Calm     65.4% 0 mm
21:24 8.8 °C 3.1 °C 1021.2 hPa Calm     67.2% 0 mm
21:29 8.7 °C 3.2 °C 1021.2 hPa Calm     68.6% 0 mm
21:34 8.6 °C 3.2 °C 1021.2 hPa Calm     69.2% 0 mm
21:39 8.4 °C 3.2 °C 1021.6 hPa Calm     70% 0 mm
21:44 8.2 °C 3.1 °C 1021.6 hPa Calm     70.2% 0 mm
21:49 8.1 °C 3.4 °C 1021.6 hPa Calm     72.6% 0 mm
Compliments of Weather Underground - 4 mb